createdAt,value
2023-03-26T00:01:38.199Z,50.60
2023-03-26T00:04:12.270Z,50.80
2023-03-26T00:06:49.223Z,50.75
2023-03-26T00:09:21.432Z,50.74
2023-03-26T00:11:56.130Z,50.86
2023-03-26T00:14:30.750Z,50.89
2023-03-26T00:17:04.805Z,51.12
2023-03-26T00:19:39.497Z,51.30
2023-03-26T00:22:14.013Z,51.13
2023-03-26T00:24:50.213Z,51.24
2023-03-26T00:27:25.797Z,51.27
2023-03-26T00:30:00.519Z,51.55
2023-03-26T00:32:34.830Z,51.38
2023-03-26T00:35:09.261Z,51.59
2023-03-26T00:37:46.546Z,51.44
2023-03-26T00:40:20.531Z,51.59
2023-03-26T00:42:54.376Z,51.73
2023-03-26T00:45:28.902Z,51.64
2023-03-26T00:48:03.812Z,51.71
2023-03-26T00:50:37.264Z,52.15
2023-03-26T00:53:12.791Z,52.05
2023-03-26T00:55:47.315Z,52.42
2023-03-26T00:58:22.696Z,52.47
2023-03-26T01:00:58.617Z,52.69
2023-03-26T01:03:35.616Z,52.57
2023-03-26T01:06:11.633Z,52.88
2023-03-26T01:08:47.198Z,53.01
2023-03-26T01:11:22.849Z,53.11
2023-03-26T01:13:59.211Z,53.42
2023-03-26T01:16:37.572Z,53.68
2023-03-26T01:19:14.562Z,53.63
2023-03-26T01:21:47.794Z,53.66
2023-03-26T01:24:22.606Z,54.10
2023-03-26T01:27:09.978Z,53.91
2023-03-26T01:29:48.602Z,54.08
2023-03-26T01:32:41.350Z,54.15
2023-03-26T01:35:26.901Z,54.19
2023-03-26T01:38:11.185Z,54.19
2023-03-26T01:40:50.937Z,54.22
2023-03-26T01:43:34.389Z,54.10
2023-03-26T01:46:10.053Z,54.12
2023-03-26T01:48:44.376Z,54.16
2023-03-26T01:51:29.865Z,54.07
2023-03-26T01:54:04.937Z,54.30
2023-03-26T01:56:43.674Z,54.27
2023-03-26T01:59:29.491Z,54.47
2023-03-26T02:02:09.524Z,54.55
2023-03-26T02:04:47.457Z,54.54
2023-03-26T02:07:25.826Z,54.75
2023-03-26T02:10:02.903Z,54.46
2023-03-26T02:12:36.804Z,54.29
2023-03-26T02:15:12.794Z,54.52
2023-03-26T02:17:47.354Z,54.51
2023-03-26T02:20:21.590Z,54.55
2023-03-26T02:22:55.885Z,54.66
2023-03-26T02:25:29.965Z,54.87
2023-03-26T02:28:04.746Z,54.64
2023-03-26T02:30:40.643Z,54.47
2023-03-26T02:33:17.835Z,55.05
2023-03-26T02:35:52.022Z,54.82
2023-03-26T02:38:25.806Z,54.87
2023-03-26T02:41:00.862Z,55.15
2023-03-26T02:43:34.766Z,55.50
2023-03-26T02:46:08.723Z,55.63
2023-03-26T02:48:44.463Z,55.76
2023-03-26T02:51:18.584Z,55.97
2023-03-26T02:53:54.219Z,55.82
2023-03-26T02:56:29.116Z,55.96
2023-03-26T02:59:02.867Z,56.00
2023-03-26T03:01:37.622Z,56.10
2023-03-26T03:04:12.097Z,56.21
2023-03-26T03:06:47.080Z,56.31
2023-03-26T03:09:21.083Z,56.05
2023-03-26T03:11:57.746Z,56.09
2023-03-26T03:14:32.112Z,56.23
2023-03-26T03:17:05.940Z,56.36
2023-03-26T03:19:41.184Z,56.00
2023-03-26T03:22:15.128Z,55.78
2023-03-26T03:24:48.974Z,55.95
2023-03-26T03:27:26.697Z,55.57
2023-03-26T03:30:00.595Z,55.25
2023-03-26T03:32:34.232Z,55.15
2023-03-26T03:35:08.856Z,54.86
2023-03-26T03:37:43.307Z,54.55
2023-03-26T03:40:17.600Z,54.35
2023-03-26T03:42:53.726Z,53.96
2023-03-26T03:45:27.562Z,53.79
2023-03-26T03:48:01.256Z,53.45
2023-03-26T03:50:36.401Z,53.17
2023-03-26T03:53:10.618Z,52.87
2023-03-26T03:55:44.347Z,52.79
2023-03-26T03:58:22.240Z,52.14
2023-03-26T04:01:01.371Z,51.89
2023-03-26T04:03:39.250Z,51.34
2023-03-26T04:06:13.360Z,50.87
2023-03-26T04:08:47.664Z,50.62
2023-03-26T04:11:21.389Z,50.33
2023-03-26T04:13:56.638Z,50.06
2023-03-26T04:16:30.281Z,49.84
2023-03-26T04:19:04.749Z,49.30
2023-03-26T04:21:39.031Z,49.08
2023-03-26T04:24:13.274Z,48.99
2023-03-26T04:26:48.391Z,48.44
2023-03-26T04:29:26.192Z,48.01
2023-03-26T04:32:06.890Z,47.16
2023-03-26T04:34:40.958Z,45.23
2023-03-26T04:37:19.542Z,43.02
2023-03-26T04:39:53.394Z,41.42
2023-03-26T04:42:27.538Z,38.66
2023-03-26T04:45:03.598Z,36.04
2023-03-26T04:47:39.598Z,34.97
2023-03-26T04:50:16.158Z,34.07
2023-03-26T04:52:50.381Z,33.91
2023-03-26T04:55:28.512Z,33.84
2023-03-26T04:58:05.941Z,33.43
2023-03-26T05:00:39.609Z,32.15
2023-03-26T05:03:15.011Z,30.65
2023-03-26T05:05:50.123Z,30.18
2023-03-26T05:08:24.257Z,27.98
2023-03-26T05:10:59.185Z,26.21
2023-03-26T05:13:32.998Z,25.22
2023-03-26T05:16:07.436Z,24.48
2023-03-26T05:18:40.955Z,23.61
2023-03-26T05:21:15.305Z,22.27
2023-03-26T05:23:49.053Z,21.31
2023-03-26T05:26:23.200Z,20.68
2023-03-26T05:28:57.330Z,19.65
2023-03-26T05:31:32.576Z,18.61
2023-03-26T05:34:07.082Z,17.51
2023-03-26T05:36:43.430Z,16.90
2023-03-26T05:39:17.342Z,15.90
2023-03-26T05:41:51.023Z,14.83
2023-03-26T05:44:25.332Z,14.01
2023-03-26T05:46:59.623Z,13.11
2023-03-26T05:49:33.830Z,12.70
2023-03-26T05:52:05.706Z,11.84
2023-03-26T05:54:39.884Z,11.80
2023-03-26T05:57:13.568Z,11.47
2023-03-26T05:59:47.184Z,11.52
2023-03-26T06:02:22.613Z,11.18
2023-03-26T06:04:57.531Z,10.80
2023-03-26T06:07:31.866Z,10.35
2023-03-26T06:10:06.071Z,10.08
2023-03-26T06:12:40.063Z,9.78
2023-03-26T06:15:15.236Z,9.51
2023-03-26T06:17:50.302Z,9.48
2023-03-26T06:20:24.450Z,9.47
2023-03-26T06:22:58.191Z,9.08
2023-03-26T06:25:29.885Z,8.96
2023-03-26T06:28:04.365Z,9.09
2023-03-26T06:30:38.460Z,8.60
2023-03-26T06:33:12.794Z,8.37
2023-03-26T06:35:47.507Z,8.06
2023-03-26T06:38:21.945Z,7.89
2023-03-26T06:41:02.045Z,7.68
2023-03-26T06:43:37.182Z,7.64
2023-03-26T06:46:12.937Z,7.34
2023-03-26T06:48:50.241Z,7.38
2023-03-26T06:51:24.840Z,7.21
2023-03-26T06:53:58.549Z,7.09
2023-03-26T06:56:33.643Z,7.03
2023-03-26T06:59:07.580Z,7.00
2023-03-26T07:01:41.227Z,6.99
2023-03-26T07:04:15.359Z,7.14
2023-03-26T07:06:49.246Z,7.13
2023-03-26T07:09:22.966Z,7.41
2023-03-26T07:11:58.419Z,7.39
2023-03-26T07:14:33.150Z,7.58
2023-03-26T07:17:07.605Z,7.62
2023-03-26T07:19:41.841Z,7.76
2023-03-26T07:22:22.467Z,8.01
2023-03-26T07:24:57.802Z,7.91
2023-03-26T07:27:42.079Z,8.07
2023-03-26T07:30:19.395Z,7.95
2023-03-26T07:32:55.302Z,7.99
2023-03-26T07:35:32.095Z,8.05
2023-03-26T07:38:29.356Z,8.19
2023-03-26T07:41:10.251Z,8.31
2023-03-26T07:43:59.616Z,8.42
2023-03-26T07:46:37.486Z,8.57
2023-03-26T07:49:15.325Z,8.81
2023-03-26T07:51:50.773Z,8.84
2023-03-26T07:54:25.436Z,8.46
2023-03-26T07:57:02.250Z,8.59
2023-03-26T07:59:40.582Z,8.65
2023-03-26T08:02:43.025Z,8.60
2023-03-26T08:05:26.822Z,8.95
2023-03-26T08:08:08.460Z,9.08
2023-03-26T08:10:48.570Z,9.27
2023-03-26T08:13:27.111Z,9.26
2023-03-26T08:16:07.120Z,10.16
2023-03-26T08:18:51.456Z,10.98
2023-03-26T08:21:28.959Z,11.92
2023-03-26T08:24:14.400Z,13.06
2023-03-26T08:26:53.879Z,14.01
2023-03-26T08:29:35.004Z,15.10
2023-03-26T08:32:14.719Z,15.51
2023-03-26T08:34:49.155Z,16.13
2023-03-26T08:37:23.385Z,16.70
2023-03-26T08:40:11.144Z,17.29
2023-03-26T08:43:10.969Z,17.73
2023-03-26T08:46:10.854Z,18.33
2023-03-26T08:49:11.641Z,18.97
2023-03-26T08:52:13.216Z,19.44
2023-03-26T08:55:14.022Z,19.91
2023-03-26T08:58:20.271Z,20.48
2023-03-26T09:01:35.579Z,21.07
2023-03-26T09:04:31.908Z,21.71
2023-03-26T09:07:32.347Z,22.02
2023-03-26T09:10:32.088Z,22.46
2023-03-26T09:13:24.819Z,22.33
2023-03-26T09:16:27.857Z,22.53
2023-03-26T09:19:34.255Z,22.81
2023-03-26T09:22:52.399Z,23.12
2023-03-26T09:25:29.020Z,23.58
2023-03-26T09:28:09.476Z,23.65
2023-03-26T09:31:05.189Z,23.88
2023-03-26T09:34:00.486Z,23.98
2023-03-26T09:36:48.024Z,24.10
2023-03-26T09:39:35.111Z,24.54
2023-03-26T09:42:21.125Z,24.69
2023-03-26T09:45:30.580Z,24.68
2023-03-26T09:48:16.672Z,24.72
2023-03-26T09:51:02.567Z,24.80
2023-03-26T09:53:54.113Z,24.97
2023-03-26T09:56:39.769Z,25.11
2023-03-26T09:59:29.870Z,25.33
2023-03-26T10:02:14.774Z,25.74
2023-03-26T10:05:07.369Z,25.91
2023-03-26T10:07:58.573Z,26.29
2023-03-26T10:10:36.819Z,26.52
2023-03-26T10:13:18.846Z,26.65
2023-03-26T10:16:05.782Z,27.04
2023-03-26T10:18:51.047Z,27.20
2023-03-26T10:21:32.392Z,27.53
2023-03-26T10:24:34.190Z,27.79
2023-03-26T10:27:33.648Z,27.73
2023-03-26T10:30:27.409Z,27.81
2023-03-26T10:33:10.123Z,27.91
2023-03-26T10:35:53.310Z,27.82
2023-03-26T10:38:37.918Z,27.71
2023-03-26T10:41:19.377Z,27.75
2023-03-26T10:44:15.446Z,27.86
2023-03-26T10:47:19.622Z,27.67
2023-03-26T10:50:01.820Z,27.41
2023-03-26T10:52:40.563Z,27.42
2023-03-26T10:55:20.364Z,27.18
2023-03-26T10:57:58.108Z,27.17
2023-03-26T11:00:32.668Z,26.88
2023-03-26T11:03:29.147Z,27.08
2023-03-26T11:06:10.279Z,26.84
2023-03-26T11:08:48.614Z,26.90
2023-03-26T11:11:30.788Z,26.85
2023-03-26T11:14:10.855Z,27.04
2023-03-26T11:16:54.479Z,27.16
2023-03-26T11:19:33.722Z,26.93
2023-03-26T11:22:16.884Z,26.90
2023-03-26T11:25:04.492Z,26.83
2023-03-26T11:27:50.565Z,26.91
2023-03-26T11:30:35.827Z,27.18
2023-03-26T11:33:12.282Z,27.51
2023-03-26T11:35:45.267Z,27.76
2023-03-26T11:38:23.848Z,28.04
2023-03-26T11:40:59.333Z,27.90
2023-03-26T11:43:35.567Z,27.97
2023-03-26T11:46:12.639Z,28.13
2023-03-26T11:48:50.368Z,28.36
2023-03-26T11:51:27.972Z,28.28
2023-03-26T11:54:03.715Z,28.36
2023-03-26T11:56:40.351Z,28.11
2023-03-26T11:59:48.815Z,28.09
2023-03-26T12:02:30.276Z,28.37
2023-03-26T12:05:19.033Z,28.36
2023-03-26T12:07:58.095Z,28.56
2023-03-26T12:10:38.650Z,28.70
2023-03-26T12:13:30.874Z,29.15
2023-03-26T12:16:08.837Z,29.39
2023-03-26T12:18:44.434Z,29.30
2023-03-26T12:21:20.172Z,29.24
2023-03-26T12:23:59.470Z,29.28
2023-03-26T12:26:51.708Z,29.76
2023-03-26T12:29:25.753Z,29.74
2023-03-26T12:32:06.477Z,29.61
2023-03-26T12:34:42.248Z,29.87
2023-03-26T12:37:37.885Z,29.97
2023-03-26T12:40:32.203Z,29.94
2023-03-26T12:44:55.268Z,29.81
2023-03-26T12:47:56.986Z,29.76
2023-03-26T12:49:24.350Z,29.98
2023-03-26T12:52:00.850Z,29.97
2023-03-26T12:54:43.372Z,29.91
2023-03-26T12:57:26.978Z,29.73
2023-03-26T13:00:30.708Z,29.86
2023-03-26T13:03:17.557Z,29.76
2023-03-26T13:06:02.680Z,29.53
2023-03-26T13:09:16.187Z,29.54
2023-03-26T13:12:00.592Z,29.55
2023-03-26T13:14:53.594Z,29.46
2023-03-26T13:17:31.691Z,29.16
2023-03-26T13:20:12.990Z,28.99
2023-03-26T13:22:53.635Z,29.18
2023-03-26T13:25:36.994Z,29.09
2023-03-26T13:28:22.058Z,29.07
2023-03-26T13:31:04.430Z,29.24
2023-03-26T13:33:45.024Z,29.32
2023-03-26T13:36:24.463Z,29.48
2023-03-26T13:39:09.168Z,29.39
2023-03-26T13:41:57.053Z,29.57
2023-03-26T13:44:37.605Z,29.55
2023-03-26T13:47:16.524Z,29.24
2023-03-26T13:49:53.368Z,29.30
2023-03-26T13:52:29.188Z,29.18
2023-03-26T13:55:09.260Z,29.27
2023-03-26T13:57:46.966Z,29.40
2023-03-26T14:00:27.122Z,29.37
2023-03-26T14:03:06.104Z,29.67
2023-03-26T14:05:44.494Z,29.69
2023-03-26T14:08:22.327Z,29.57
2023-03-26T14:11:01.663Z,29.80
2023-03-26T14:13:38.001Z,29.95
2023-03-26T14:16:17.308Z,30.08
2023-03-26T14:18:56.688Z,30.13
2023-03-26T14:21:55.001Z,30.32
2023-03-26T14:24:59.529Z,30.73
2023-03-26T14:27:48.632Z,30.66
2023-03-26T14:30:42.154Z,30.94
2023-03-26T14:33:34.525Z,31.30
2023-03-26T14:36:20.990Z,31.45
2023-03-26T14:39:26.353Z,31.76
2023-03-26T14:42:05.281Z,32.22
2023-03-26T14:44:56.854Z,32.73
2023-03-26T14:47:31.356Z,33.13
2023-03-26T14:50:27.218Z,33.38
2023-03-26T14:53:04.885Z,33.70
2023-03-26T14:56:16.967Z,33.88
2023-03-26T14:59:19.861Z,34.27
2023-03-26T15:02:27.056Z,34.94
2023-03-26T15:05:33.279Z,35.09
2023-03-26T15:08:36.501Z,35.24
2023-03-26T15:11:22.287Z,35.61
2023-03-26T15:14:16.582Z,35.99
2023-03-26T15:17:26.455Z,36.54
2023-03-26T15:20:32.485Z,36.67
2023-03-26T15:23:30.330Z,37.16
2023-03-26T15:26:37.681Z,37.44
2023-03-26T15:29:38.313Z,37.81
2023-03-26T15:32:30.829Z,38.04
2023-03-26T15:35:24.848Z,38.67
2023-03-26T15:38:32.815Z,39.20
2023-03-26T15:41:23.506Z,39.52
2023-03-26T15:44:50.964Z,39.96
2023-03-26T15:48:02.850Z,40.35
2023-03-26T15:50:47.012Z,41.29
2023-03-26T15:53:28.226Z,41.51
2023-03-26T15:56:19.639Z,41.91
2023-03-26T15:59:01.660Z,42.28
2023-03-26T16:01:47.943Z,42.69
2023-03-26T16:04:30.429Z,43.10
2023-03-26T16:07:15.589Z,43.51
2023-03-26T16:10:12.635Z,43.80
2023-03-26T16:12:58.238Z,44.26
2023-03-26T16:15:34.167Z,44.51
2023-03-26T16:18:31.468Z,44.70
2023-03-26T16:21:37.828Z,44.91
2023-03-26T16:24:32.399Z,45.17
2023-03-26T16:27:35.504Z,45.44
2023-03-26T16:30:34.021Z,45.70
2023-03-26T16:33:16.026Z,45.63
2023-03-26T16:36:19.122Z,45.77
2023-03-26T16:39:04.685Z,45.89
2023-03-26T16:41:56.916Z,45.98
2023-03-26T16:44:48.413Z,46.23
2023-03-26T16:47:36.109Z,46.36
2023-03-26T16:50:19.498Z,46.23
2023-03-26T16:53:01.884Z,46.38
2023-03-26T16:55:45.771Z,46.31
2023-03-26T16:58:38.441Z,46.42
2023-03-26T17:01:18.715Z,46.55
2023-03-26T17:03:57.787Z,46.60
2023-03-26T17:06:57.015Z,46.87
2023-03-26T17:09:38.206Z,46.96
2023-03-26T17:12:21.635Z,46.95
2023-03-26T17:15:06.395Z,47.15
2023-03-26T17:17:59.684Z,47.37
2023-03-26T17:20:40.569Z,47.55
2023-03-26T17:23:34.462Z,47.54
2023-03-26T17:26:13.855Z,47.86
2023-03-26T17:28:56.954Z,47.94
2023-03-26T17:31:39.605Z,48.51
2023-03-26T17:34:51.232Z,49.06
2023-03-26T17:37:36.782Z,50.18
2023-03-26T17:40:52.102Z,50.87
2023-03-26T17:43:46.887Z,51.68
2023-03-26T17:46:38.254Z,52.31
2023-03-26T17:49:24.395Z,52.91
2023-03-26T17:52:02.647Z,53.05
2023-03-26T17:54:40.106Z,53.74
2023-03-26T17:57:19.864Z,53.66
2023-03-26T18:00:00.483Z,53.73
2023-03-26T18:02:41.948Z,53.65
2023-03-26T18:05:20.317Z,53.85
2023-03-26T18:08:30.933Z,54.06
2023-03-26T18:11:51.961Z,54.71
2023-03-26T18:14:49.518Z,55.01
2023-03-26T18:17:23.557Z,55.17
2023-03-26T18:20:06.548Z,55.69
2023-03-26T18:22:40.367Z,56.22
2023-03-26T18:25:27.779Z,56.26
2023-03-26T18:28:06.839Z,56.55
2023-03-26T18:30:49.517Z,56.70
2023-03-26T18:33:26.353Z,56.91
2023-03-26T18:35:58.400Z,57.01
2023-03-26T18:38:38.533Z,57.03
2023-03-26T18:41:31.969Z,57.48
2023-03-26T18:44:13.857Z,57.52
2023-03-26T18:46:48.501Z,57.42
2023-03-26T18:49:22.888Z,57.63
2023-03-26T18:51:57.691Z,57.55
2023-03-26T18:54:36.093Z,57.42
2023-03-26T18:57:18.982Z,57.00
2023-03-26T18:59:53.607Z,56.79
2023-03-26T19:02:29.801Z,56.56
2023-03-26T19:05:05.963Z,56.38
2023-03-26T19:07:41.987Z,56.43
2023-03-26T19:10:25.788Z,56.46
2023-03-26T19:13:00.796Z,56.33
2023-03-26T19:15:36.716Z,56.24
2023-03-26T19:18:17.108Z,56.13
2023-03-26T19:20:56.502Z,56.04
2023-03-26T19:23:35.104Z,55.75
2023-03-26T19:26:12.081Z,55.55
2023-03-26T19:28:51.566Z,55.29
2023-03-26T19:31:28.541Z,55.25
2023-03-26T19:34:09.750Z,55.17
2023-03-26T19:36:59.877Z,55.10
2023-03-26T19:39:43.204Z,54.94
2023-03-26T19:42:24.242Z,54.69
2023-03-26T19:44:58.775Z,54.53
2023-03-26T19:47:49.917Z,54.39
2023-03-26T19:50:28.836Z,54.27
2023-03-26T19:53:19.817Z,54.29
2023-03-26T19:56:07.956Z,54.45
2023-03-26T19:58:47.102Z,54.45
2023-03-26T20:01:25.587Z,54.46
2023-03-26T20:04:02.428Z,54.50
2023-03-26T20:06:43.764Z,54.45
2023-03-26T20:09:19.801Z,54.34
2023-03-26T20:11:54.678Z,54.26
2023-03-26T20:14:28.387Z,54.03
2023-03-26T20:17:02.242Z,54.12
2023-03-26T20:19:39.507Z,54.10
2023-03-26T20:22:22.766Z,54.06
2023-03-26T20:24:58.750Z,54.06
2023-03-26T20:27:32.621Z,54.10
2023-03-26T20:33:12.790Z,54.00
2023-03-26T20:35:48.839Z,54.32
2023-03-26T20:38:39.222Z,54.49
2023-03-26T20:41:32.493Z,54.79
2023-03-26T20:44:50.428Z,55.00
2023-03-26T20:58:07.049Z,54.37
2023-03-26T21:00:45.082Z,54.19
2023-03-26T21:03:21.147Z,54.41
2023-03-26T21:05:55.206Z,54.62
2023-03-26T21:08:39.463Z,54.89
2023-03-26T21:11:26.614Z,55.19
2023-03-26T21:14:05.747Z,55.37
2023-03-26T21:16:41.351Z,55.53
2023-03-26T21:19:17.393Z,55.67
2023-03-26T21:22:08.293Z,55.76
2023-03-26T21:24:53.200Z,56.00
2023-03-26T21:27:34.162Z,56.14
2023-03-26T21:30:15.156Z,56.22
2023-03-26T21:32:50.960Z,56.42
2023-03-26T21:35:28.509Z,56.75
2023-03-26T21:38:04.723Z,56.91
2023-03-26T21:40:46.960Z,56.85
2023-03-26T21:43:28.583Z,57.07
2023-03-26T21:46:06.755Z,57.03
2023-03-26T21:48:42.225Z,57.23
2023-03-26T21:51:19.758Z,57.20
2023-03-26T21:53:55.461Z,57.15
2023-03-26T21:56:42.270Z,57.21
2023-03-26T21:59:21.402Z,57.10
2023-03-26T22:01:58.900Z,56.72
2023-03-26T22:04:38.043Z,56.76
2023-03-26T22:07:16.320Z,56.66
2023-03-26T22:09:51.899Z,56.64
2023-03-26T22:12:26.726Z,56.71
2023-03-26T22:15:04.919Z,56.67
2023-03-26T22:17:39.396Z,56.64
2023-03-26T22:20:17.148Z,56.77
2023-03-26T22:22:53.780Z,56.88
2023-03-26T22:25:28.001Z,57.06
2023-03-26T22:28:02.676Z,57.17
2023-03-26T22:30:36.596Z,57.27
2023-03-26T22:33:12.436Z,57.41
2023-03-26T22:35:47.688Z,57.60
2023-03-26T22:38:21.345Z,57.62
2023-03-26T22:41:00.294Z,57.66
2023-03-26T22:43:34.363Z,57.88
2023-03-26T22:46:09.450Z,57.88
2023-03-26T22:48:46.301Z,57.96
2023-03-26T22:51:18.291Z,58.15
2023-03-26T22:53:52.695Z,58.25
2023-03-26T22:56:26.363Z,58.41
2023-03-26T22:59:00.647Z,58.35
2023-03-26T23:01:35.393Z,58.42
2023-03-26T23:04:09.562Z,58.41
2023-03-26T23:06:43.440Z,58.67
2023-03-26T23:09:17.265Z,58.75
2023-03-26T23:11:52.794Z,58.70
2023-03-26T23:14:29.832Z,58.78
2023-03-26T23:17:04.305Z,58.91
2023-03-26T23:19:39.545Z,58.93
2023-03-26T23:22:15.129Z,58.84
2023-03-26T23:24:48.764Z,59.10
2023-03-26T23:27:23.431Z,59.00
2023-03-26T23:29:58.399Z,59.05
2023-03-26T23:32:33.517Z,59.06
2023-03-26T23:35:08.800Z,59.17
2023-03-26T23:37:42.958Z,59.34
2023-03-26T23:40:19.446Z,59.36
2023-03-26T23:42:54.684Z,59.43
2023-03-26T23:45:28.292Z,59.63
2023-03-26T23:48:04.587Z,59.61
2023-03-26T23:50:40.417Z,59.77
2023-03-26T23:53:14.900Z,60.07
2023-03-26T23:55:54.681Z,60.12
2023-03-26T23:58:30.473Z,60.38
